Time;durP1;ratioP1;P1;durP2;ratioP2;P2;SDS_P1;SDS_P2;PMS_P1;PMS_P2;Temp;Humidity;BMP_temperature;BMP_pressure;BME280_temperature;BME280_humidity;BME280_pressure;Samples;Min_cycle;Max_cycle;Signal;HPM_P1;HPM_P2
2022/01/22 00:01:05;;;;;;;4.05;1.60;;;9.30;90.60;;;;;;5088304;28;20419;-68
2022/01/22 00:03:33;;;;;;;4.20;2.00;;;9.20;90.50;;;;;;5108261;28;20523;-67
2022/01/22 00:06:01;;;;;;;1.83;1.13;;;9.20;90.40;;;;;;5109483;28;20088;-68
2022/01/22 00:08:29;;;;;;;8.43;2.45;;;9.10;90.10;;;;;;5109038;28;20125;-68
2022/01/22 00:10:57;;;;;;;2.40;1.75;;;9.10;89.60;;;;;;5109600;28;20127;-67
2022/01/22 00:16:10;;;;;;;3.50;2.05;;;9.10;89.00;;;;;;5124103;28;20047;-67
2022/01/22 00:18:39;;;;;;;8.07;1.98;;;9.00;87.60;;;;;;5123497;28;20042;-67
2022/01/22 00:21:07;;;;;;;4.07;1.60;;;9.00;87.20;;;;;;5081754;28;20080;-67
2022/01/22 00:23:38;;;;;;;1.55;1.00;;;9.10;86.50;;;;;;5114648;28;20138;-67
2022/01/22 00:26:05;;;;;;;4.15;1.70;;;9.00;86.30;;;;;;5128454;27;20493;-68
2022/01/22 00:28:33;;;;;;;4.35;1.33;;;9.00;85.80;;;;;;5127722;27;20096;-67
2022/01/22 00:31:00;;;;;;;1.75;1.15;;;9.00;85.40;;;;;;5094918;28;20036;-65
2022/01/22 00:33:28;;;;;;;2.70;1.48;;;9.00;85.40;;;;;;5111092;27;20637;-65
2022/01/22 00:35:56;;;;;;;4.43;2.15;;;9.00;85.60;;;;;;5113861;28;20043;-66
2022/01/22 00:38:24;;;;;;;2.53;1.10;;;9.00;84.90;;;;;;5093734;28;20582;-66
2022/01/22 00:40:52;;;;;;;3.50;1.17;;;9.00;84.50;;;;;;5112409;27;20434;-66
2022/01/22 00:43:20;;;;;;;2.88;1.55;;;8.90;83.40;;;;;;5088852;28;20047;-67
2022/01/22 00:45:48;;;;;;;6.53;1.70;;;8.70;83.00;;;;;;5117891;27;20047;-66
2022/01/22 00:48:16;;;;;;;4.03;1.67;;;8.80;82.80;;;;;;5075489;27;20047;-66
2022/01/22 00:50:44;;;;;;;2.80;1.30;;;8.80;82.10;;;;;;5101115;28;20051;-66
2022/01/22 00:53:11;;;;;;;2.70;1.20;;;8.70;81.40;;;;;;5097733;27;20046;-65
2022/01/22 00:55:39;;;;;;;2.17;1.27;;;8.70;80.50;;;;;;5087244;27;20035;-65
2022/01/22 00:58:07;;;;;;;5.60;1.77;;;8.60;79.90;;;;;;5085321;27;20064;-65
2022/01/22 01:00:35;;;;;;;2.47;1.40;;;8.60;79.00;;;;;;5092183;27;20100;-65
2022/01/22 01:03:02;;;;;;;2.50;1.00;;;8.60;78.20;;;;;;5106621;27;20040;-65
2022/01/22 01:05:30;;;;;;;6.43;1.33;;;8.50;78.00;;;;;;5106919;27;20425;-65
2022/01/22 01:07:58;;;;;;;1.40;0.98;;;8.40;77.60;;;;;;5114519;27;20035;-66
2022/01/22 01:10:26;;;;;;;3.30;1.52;;;8.40;77.10;;;;;;5112630;27;20480;-65
2022/01/22 01:12:58;;;;;;;2.42;1.00;;;8.40;76.40;;;;;;5096785;27;20431;-67
2022/01/22 01:15:54;;;;;;;1.80;1.00;;;8.40;76.00;;;;;;5095962;27;20157;-67
2022/01/22 01:32:21;;;;;;;2.40;2.05;;;8.30;78.60;;;;;;5135038;27;20039;-66
2022/01/22 01:34:50;;;;;;;4.82;1.00;;;8.20;78.10;;;;;;5117716;27;20031;-66
2022/01/22 01:37:19;;;;;;;1.13;1.02;;;8.30;78.20;;;;;;5117067;27;20039;-66
2022/01/22 01:39:52;;;;;;;1.90;0.68;;;8.30;77.80;;;;;;5115719;27;20035;-66
2022/01/22 01:42:30;;;;;;;1.80;0.80;;;8.30;77.80;;;;;;5105935;28;20436;-66
2022/01/22 01:45:01;;;;;;;2.60;2.03;;;8.30;78.40;;;;;;5094888;28;20039;-66
2022/01/22 01:47:37;;;;;;;1.30;1.05;;;8.30;79.10;;;;;;5095209;28;20086;-66
2022/01/22 01:50:06;;;;;;;2.17;1.17;;;8.30;80.10;;;;;;5078307;28;20048;-66
2022/01/22 01:52:43;;;;;;;2.50;1.10;;;8.30;80.40;;;;;;5078638;28;20055;-66
2022/01/22 01:55:22;;;;;;;3.55;1.00;;;8.30;80.20;;;;;;5096492;28;20035;-67
2022/01/22 01:57:49;;;;;;;1.67;1.27;;;8.20;80.30;;;;;;5096981;28;20059;-66
2022/01/22 02:00:24;;;;;;;2.38;1.10;;;8.20;80.00;;;;;;5097019;28;20039;-67
2022/01/22 02:02:59;;;;;;;4.45;1.77;;;8.20;80.60;;;;;;5063927;28;20138;-67
2022/01/22 02:05:35;;;;;;;4.10;1.35;;;8.20;80.80;;;;;;5080407;28;20386;-67
2022/01/22 02:08:03;;;;;;;2.22;1.10;;;8.20;80.60;;;;;;5097107;28;20082;-67
2022/01/22 02:10:45;;;;;;;;;;;8.10;79.70;;;;;;5080487;28;20086;-67
2022/01/22 02:13:43;;;;;;;2.70;1.58;;;8.20;80.00;;;;;;5096553;28;19923;-66
2022/01/22 02:25:08;;;;;;;3.20;1.38;;;8.40;80.90;;;;;;5114474;28;20051;-67
2022/01/22 02:27:35;;;;;;;2.33;1.50;;;8.40;80.80;;;;;;5096276;28;20054;-67
2022/01/22 02:30:06;;;;;;;4.15;1.30;;;8.40;81.00;;;;;;5096163;28;20123;-66
2022/01/22 02:35:43;;;;;;;3.35;0.73;;;8.60;81.70;;;;;;5096105;28;20039;-67
2022/01/22 02:38:18;;;;;;;3.13;1.15;;;8.50;81.80;;;;;;5096369;28;20450;-68
2022/01/22 02:40:48;;;;;;;4.72;1.20;;;8.60;82.10;;;;;;5096143;28;20057;-68
2022/01/22 02:43:17;;;;;;;2.55;0.95;;;8.50;82.30;;;;;;5113333;27;20055;-68
2022/01/22 02:45:46;;;;;;;2.53;1.00;;;8.50;82.60;;;;;;5116401;27;20046;-67
2022/01/22 02:48:14;;;;;;;2.45;1.17;;;8.50;83.40;;;;;;5134495;27;20050;-67
2022/01/22 02:50:42;;;;;;;3.17;1.65;;;8.50;84.70;;;;;;5116388;27;20043;-68
2022/01/22 02:53:12;;;;;;;4.05;1.10;;;8.50;86.30;;;;;;5099261;27;20035;-67
2022/01/22 02:55:40;;;;;;;3.03;1.17;;;8.40;86.70;;;;;;5099157;27;20043;-67
2022/01/22 02:58:09;;;;;;;2.17;1.25;;;8.40;86.70;;;;;;5099289;27;20086;-68
2022/01/22 03:00:36;;;;;;;8.65;1.55;;;8.40;86.60;;;;;;5116323;27;20043;-68
2022/01/22 03:03:06;;;;;;;4.15;1.15;;;8.40;86.80;;;;;;5115996;27;20065;-68
2022/01/22 03:05:34;;;;;;;3.00;1.27;;;8.40;86.70;;;;;;5099325;27;20597;-67
2022/01/22 03:08:07;;;;;;;3.35;1.40;;;8.40;86.70;;;;;;5116154;27;20031;-68
2022/01/22 03:10:36;;;;;;;3.53;1.10;;;8.40;86.70;;;;;;5116226;28;20042;-67
2022/01/22 03:15:49;;;;;;;1.60;0.90;;;8.50;86.70;;;;;;5116001;27;20035;-67
2022/01/22 03:18:34;;;;;;;4.70;1.00;;;8.50;87.00;;;;;;5099113;27;20043;-68
2022/01/22 03:29:18;;;;;;;2.17;0.80;;;8.50;84.50;;;;;;5063298;28;20051;-68
2022/01/22 03:31:46;;;;;;;1.65;1.00;;;8.40;84.30;;;;;;5095643;28;20093;-68
2022/01/22 03:34:14;;;;;;;2.90;0.85;;;8.30;84.30;;;;;;5078935;28;20036;-67
2022/01/22 03:36:42;;;;;;;2.40;1.05;;;8.30;84.20;;;;;;5095595;28;20044;-67
2022/01/22 03:39:10;;;;;;;2.80;1.20;;;8.30;84.40;;;;;;5095185;28;20046;-67
2022/01/22 03:41:40;;;;;;;1.42;0.85;;;8.20;84.50;;;;;;5074872;28;20477;-68
2022/01/22 03:44:08;;;;;;;0.95;0.80;;;8.30;84.50;;;;;;5058539;28;20514;-68
2022/01/22 03:46:38;;;;;;;2.70;0.90;;;8.20;84.30;;;;;;5042183;28;20142;-68
2022/01/22 03:49:05;;;;;;;2.53;1.20;;;8.20;84.50;;;;;;5074851;28;20040;-68
2022/01/22 03:51:33;;;;;;;1.48;0.85;;;8.20;85.10;;;;;;5075016;28;20048;-68
2022/01/22 03:54:01;;;;;;;2.28;1.08;;;8.20;85.30;;;;;;5058236;28;20055;-68
2022/01/22 03:56:29;;;;;;;4.22;1.38;;;8.20;85.50;;;;;;5075141;28;20044;-68
2022/01/22 03:59:28;;;;;;;1.52;1.25;;;8.10;85.70;;;;;;5066845;28;20056;-68
2022/01/22 04:02:51;;;;;;;2.63;1.33;;;8.10;86.70;;;;;;5079116;28;20036;-68
2022/01/22 04:05:06;;;;;;;4.22;1.80;;;8.10;87.40;;;;;;5078594;28;20063;-67
2022/01/22 04:10:23;;;;;;;2.45;0.90;;;8.20;87.60;;;;;;5096946;28;20044;-67
2022/01/22 04:13:31;;;;;;;2.50;0.90;;;8.10;87.20;;;;;;5078469;28;20048;-67
2022/01/22 04:15:46;;;;;;;4.47;1.25;;;8.10;86.50;;;;;;5075628;28;20052;-68
2022/01/22 04:26:42;;;;;;;1.02;0.80;;;8.10;85.10;;;;;;5078490;28;20056;-67
2022/01/22 04:29:09;;;;;;;2.80;1.17;;;8.00;83.90;;;;;;5096383;28;20540;-67
2022/01/22 04:31:37;;;;;;;1.52;0.77;;;7.80;82.40;;;;;;5078583;28;20089;-67
2022/01/22 04:34:04;;;;;;;1.30;0.93;;;7.80;81.80;;;;;;5078201;28;20051;-68
2022/01/22 04:36:32;;;;;;;4.45;1.50;;;7.70;81.10;;;;;;5078147;28;20044;-68
2022/01/22 04:38:59;;;;;;;2.30;1.25;;;7.70;80.60;;;;;;5094925;28;20047;-68
2022/01/22 04:41:27;;;;;;;5.15;1.02;;;7.70;80.70;;;;;;5097916;28;20094;-67
2022/01/22 04:43:59;;;;;;;1.25;0.77;;;7.70;80.90;;;;;;5098725;28;20047;-68
2022/01/22 04:46:49;;;;;;;2.42;0.88;;;7.60;81.40;;;;;;5098611;28;20186;-67
2022/01/22 04:54:59;;;;;;;1.98;0.85;;;7.50;81.50;;;;;;5098220;28;20043;-67
2022/01/22 04:57:37;;;;;;;2.53;1.10;;;7.50;81.30;;;;;;5098086;28;20379;-67
2022/01/22 05:00:09;;;;;;;1.65;1.08;;;7.50;80.90;;;;;;5115191;28;20397;-68
2022/01/22 05:03:06;;;;;;;1.67;0.98;;;7.50;80.30;;;;;;5097789;28;20051;-67
2022/01/22 05:05:56;;;;;;;2.42;1.00;;;7.50;80.10;;;;;;5098242;28;20063;-68
2022/01/22 05:08:34;;;;;;;1.58;1.00;;;7.60;80.00;;;;;;5081294;28;20078;-67
2022/01/22 05:11:24;;;;;;;1.45;0.90;;;7.60;79.30;;;;;;5097872;28;20043;-67
2022/01/22 05:13:57;;;;;;;1.15;0.75;;;7.50;79.10;;;;;;5097777;28;20051;-68
2022/01/22 05:16:25;;;;;;;0.82;0.70;;;7.60;79.10;;;;;;5081134;28;20156;-67
2022/01/22 05:19:20;;;;;;;0.88;0.68;;;7.60;78.90;;;;;;5097747;28;20432;-67
2022/01/22 05:21:43;;;;;;;1.35;0.80;;;7.60;79.30;;;;;;5097382;28;20089;-68
2022/01/22 05:24:15;;;;;;;2.38;0.90;;;7.50;80.40;;;;;;5097386;28;20044;-67
2022/01/22 05:38:32;;;;;;;3.83;1.25;;;7.40;82.00;;;;;;5027142;27;20067;-67
2022/01/22 05:41:01;;;;;;;3.33;1.17;;;7.50;82.10;;;;;;5100564;27;20501;-67
2022/01/22 05:43:29;;;;;;;2.15;0.80;;;7.50;81.80;;;;;;5098180;28;20083;-67
2022/01/22 05:45:56;;;;;;;3.97;0.95;;;7.50;81.90;;;;;;5115130;28;20048;-67
2022/01/22 05:48:24;;;;;;;2.92;1.23;;;7.50;82.00;;;;;;5115124;28;20043;-67
2022/01/22 05:50:59;;;;;;;2.70;1.00;;;7.40;81.70;;;;;;5079944;28;20043;-67
2022/01/22 05:53:41;;;;;;;4.07;1.45;;;7.50;81.60;;;;;;5080073;28;20077;-67
2022/01/22 06:01:45;;;;;;;4.18;1.40;;;7.50;79.30;;;;;;5097015;28;20040;-65
2022/01/22 06:04:19;;;;;;;2.30;1.35;;;7.40;78.10;;;;;;5079878;28;20036;-65
2022/01/22 06:06:51;;;;;;;1.45;0.90;;;7.40;77.20;;;;;;5096867;28;20043;-65
2022/01/22 06:09:19;;;;;;;5.47;0.93;;;7.40;76.60;;;;;;5096811;28;20036;-65
2022/01/22 06:12:14;;;;;;;1.67;0.60;;;7.30;76.30;;;;;;5096834;28;20063;-65
2022/01/22 06:14:50;;;;;;;3.33;1.10;;;7.40;76.20;;;;;;4773939;28;20886;-63
2022/01/22 06:17:18;;;;;;;2.05;0.95;;;7.30;76.70;;;;;;4625610;28;21170;-62
2022/01/22 06:19:52;;;;;;;4.78;1.40;;;7.30;76.70;;;;;;4624101;28;21104;-62
2022/01/22 06:22:21;;;;;;;2.45;0.90;;;7.30;76.80;;;;;;4623153;28;20424;-62
2022/01/22 06:24:49;;;;;;;4.03;1.15;;;7.30;75.90;;;;;;4819807;28;20055;-64
2022/01/22 06:27:18;;;;;;;1.83;1.35;;;7.30;76.10;;;;;;5086526;28;20075;-64
2022/01/22 06:29:45;;;;;;;2.30;1.30;;;7.40;76.20;;;;;;5087196;28;20039;-64
2022/01/22 06:32:13;;;;;;;1.33;0.90;;;7.30;76.40;;;;;;5062287;28;20478;-65
2022/01/22 06:34:43;;;;;;;3.05;1.45;;;7.30;76.30;;;;;;5072947;28;20502;-65
2022/01/22 06:37:12;;;;;;;6.65;2.17;;;7.20;76.30;;;;;;5074062;28;20549;-65
2022/01/22 06:43:08;;;;;;;3.75;1.42;;;7.30;76.30;;;;;;5025451;28;20049;-64
2022/01/22 06:45:51;;;;;;;3.17;1.00;;;7.40;76.80;;;;;;5015190;28;20045;-65
2022/01/22 06:48:19;;;;;;;1.50;1.08;;;7.40;77.10;;;;;;5051436;28;20135;-65
2022/01/22 06:51:13;;;;;;;2.15;1.20;;;7.40;77.40;;;;;;5069852;28;20139;-64
2022/01/22 06:53:41;;;;;;;1.50;0.80;;;7.50;77.20;;;;;;5059296;28;20040;-65
2022/01/22 06:56:18;;;;;;;1.83;1.25;;;7.50;76.80;;;;;;5059192;28;20063;-65
2022/01/22 06:59:06;;;;;;;2.53;1.50;;;7.60;76.70;;;;;;5075405;28;20079;-65
2022/01/22 07:01:33;;;;;;;6.60;1.90;;;7.60;77.10;;;;;;5075501;28;20126;-65
2022/01/22 07:04:07;;;;;;;6.15;1.90;;;7.60;77.30;;;;;;5058605;28;20036;-65
2022/01/22 07:06:39;;;;;;;5.43;1.70;;;7.70;77.30;;;;;;5075480;28;20101;-65
2022/01/22 07:09:08;;;;;;;3.60;1.92;;;7.70;77.60;;;;;;5075142;28;20044;-65
2022/01/22 07:11:38;;;;;;;3.92;1.00;;;7.70;77.50;;;;;;5075449;28;20482;-65
2022/01/22 07:14:06;;;;;;;8.65;2.03;;;7.60;77.80;;;;;;5075611;28;20032;-65
2022/01/22 07:16:34;;;;;;;2.40;1.20;;;7.60;78.30;;;;;;5075269;28;20043;-65
2022/01/22 07:19:24;;;;;;;1.77;1.35;;;7.60;79.00;;;;;;5084884;28;20059;-65
2022/01/22 07:22:06;;;;;;;1.98;1.70;;;7.50;80.00;;;;;;5075287;28;20066;-65
2022/01/22 07:24:43;;;;;;;3.00;1.80;;;7.60;81.10;;;;;;5075345;28;20486;-66
2022/01/22 07:27:10;;;;;;;6.82;3.47;;;7.60;81.90;;;;;;5074762;28;20055;-65
2022/01/22 07:29:38;;;;;;;6.47;2.08;;;7.60;82.40;;;;;;5093180;28;20102;-65
2022/01/22 07:32:11;;;;;;;4.13;1.70;;;7.60;83.20;;;;;;5058570;28;20043;-65
2022/01/22 07:34:39;;;;;;;4.72;2.30;;;7.60;83.70;;;;;;4919405;28;20071;-65
2022/01/22 07:37:19;;;;;;;10.55;3.92;;;7.70;84.30;;;;;;5083129;28;20058;-65
2022/01/22 07:39:47;;;;;;;11.93;4.00;;;7.70;84.70;;;;;;5099620;28;20069;-65
2022/01/22 07:42:36;;;;;;;7.47;4.30;;;7.80;84.90;;;;;;5117200;28;20051;-65
2022/01/22 07:45:24;;;;;;;11.35;3.75;;;7.80;84.50;;;;;;5117314;28;20102;-65
2022/01/22 07:47:59;;;;;;;6.53;2.83;;;7.80;84.00;;;;;;5099273;28;20036;-65
2022/01/22 07:50:50;;;;;;;7.30;2.53;;;7.70;82.00;;;;;;5106206;28;20051;-65
2022/01/22 07:53:18;;;;;;;7.93;3.55;;;7.70;81.40;;;;;;5099519;28;20525;-65
2022/01/22 07:55:45;;;;;;;3.13;1.80;;;7.70;79.40;;;;;;5083021;28;20040;-65
2022/01/22 07:58:14;;;;;;;5.32;2.22;;;7.70;77.60;;;;;;5099162;28;20085;-65
2022/01/22 08:00:43;;;;;;;6.65;3.10;;;7.60;76.60;;;;;;5082170;28;20109;-65
2022/01/22 08:03:11;;;;;;;11.23;4.22;;;7.60;75.60;;;;;;5099168;28;20405;-65
2022/01/22 08:06:01;;;;;;;3.55;2.17;;;7.70;75.00;;;;;;5097146;28;20039;-66
2022/01/22 08:08:52;;;;;;;22.83;5.63;;;7.80;74.20;;;;;;5108724;28;20143;-66
2022/01/22 08:11:38;;;;;;;6.47;2.60;;;7.90;73.40;;;;;;5117441;28;20055;-67
2022/01/22 08:14:09;;;;;;;4.78;2.40;;;7.90;73.50;;;;;;5098868;28;20036;-67
2022/01/22 08:16:37;;;;;;;3.45;2.38;;;7.80;73.70;;;;;;5117196;28;20039;-67
2022/01/22 08:19:05;;;;;;;7.18;2.97;;;7.80;74.40;;;;;;5098649;28;20049;-66
2022/01/22 08:21:33;;;;;;;9.32;3.17;;;7.80;76.00;;;;;;5098640;28;20089;-66
2022/01/22 08:24:23;;;;;;;9.40;3.42;;;7.80;78.60;;;;;;5116886;28;20492;-66
2022/01/22 08:30:08;;;;;;;8.35;4.45;;;7.90;80.90;;;;;;5020830;28;20049;-67
2022/01/22 08:37:54;;;;;;;12.55;4.32;;;8.30;80.90;;;;;;5083442;28;20031;-64
2022/01/22 08:40:23;;;;;;;7.80;3.33;;;8.50;80.90;;;;;;4859200;28;20031;-68
2022/01/22 08:42:50;;;;;;;5.97;2.78;;;8.70;80.50;;;;;;5064389;28;20059;-65
2022/01/22 08:45:18;;;;;;;4.57;2.15;;;9.00;80.10;;;;;;5097799;28;20123;-65
2022/01/22 08:47:48;;;;;;;6.00;2.90;;;9.10;79.40;;;;;;5098102;28;20035;-66
2022/01/22 08:50:15;;;;;;;7.40;2.58;;;9.20;79.20;;;;;;5098382;28;20043;-65
2022/01/22 08:52:43;;;;;;;8.38;3.50;;;9.10;79.60;;;;;;5098449;28;20515;-66
2022/01/22 08:55:11;;;;;;;5.43;3.45;;;9.00;79.70;;;;;;5081132;28;20036;-66
2022/01/22 08:57:39;;;;;;;6.53;3.22;;;9.10;80.50;;;;;;5116071;28;20123;-65
2022/01/22 09:00:13;;;;;;;6.03;2.85;;;9.00;80.30;;;;;;5097704;28;20093;-65
2022/01/22 09:02:57;;;;;;;5.75;2.60;;;9.00;80.50;;;;;;5097723;28;20032;-66
2022/01/22 09:05:43;;;;;;;7.72;3.75;;;9.00;80.80;;;;;;5115947;28;20374;-66
2022/01/22 09:08:37;;;;;;;3.95;2.72;;;8.90;80.70;;;;;;5070826;28;20139;-66
2022/01/22 09:11:06;;;;;;;2.95;1.90;;;9.10;80.30;;;;;;5115531;28;20040;-66
2022/01/22 09:13:55;;;;;;;3.83;1.88;;;9.20;80.40;;;;;;5097654;28;20040;-67
2022/01/22 09:16:30;;;;;;;4.03;2.08;;;9.20;79.20;;;;;;5097746;28;20039;-67
2022/01/22 09:19:06;;;;;;;5.38;2.00;;;9.20;78.90;;;;;;5115443;28;20044;-67
2022/01/22 09:21:35;;;;;;;2.60;1.70;;;9.20;79.30;;;;;;5097799;28;20122;-67
2022/01/22 09:24:04;;;;;;;4.30;2.28;;;9.10;78.80;;;;;;5081215;28;20048;-68
2022/01/22 09:26:32;;;;;;;4.32;2.72;;;8.90;78.60;;;;;;5115608;28;20089;-65
2022/01/22 09:29:00;;;;;;;4.88;1.90;;;8.90;78.90;;;;;;5097162;28;20039;-65
2022/01/22 09:31:31;;;;;;;2.50;1.52;;;9.10;79.10;;;;;;5097559;28;20043;-65
2022/01/22 09:34:02;;;;;;;3.70;2.08;;;9.30;79.40;;;;;;5097630;28;20397;-65
2022/01/22 09:36:48;;;;;;;2.08;1.20;;;9.60;78.70;;;;;;4870243;28;20771;-63
2022/01/22 09:39:21;;;;;;;2.03;1.15;;;10.00;76.20;;;;;;5043922;28;20039;-65
2022/01/22 09:42:03;;;;;;;4.57;1.52;;;10.10;74.80;;;;;;5096838;28;20051;-65
2022/01/22 09:44:58;;;;;;;3.33;1.73;;;10.00;74.10;;;;;;5109813;28;20048;-65
2022/01/22 09:47:26;;;;;;;4.15;2.10;;;9.90;73.60;;;;;;5096592;28;20043;-65
2022/01/22 09:50:15;;;;;;;5.55;2.55;;;10.00;73.70;;;;;;5114984;28;20035;-65
2022/01/22 09:52:55;;;;;;;10.52;2.45;;;10.10;72.20;;;;;;5114960;28;20044;-66
2022/01/22 09:55:50;;;;;;;3.80;1.63;;;10.40;72.60;;;;;;5083214;28;20521;-65
2022/01/22 09:58:44;;;;;;;3.22;1.58;;;10.60;70.20;;;;;;5089806;28;20052;-66
2022/01/22 10:01:33;;;;;;;4.88;1.48;;;10.90;68.40;;;;;;5096913;28;20051;-66
2022/01/22 10:04:12;;;;;;;3.55;1.40;;;10.80;66.80;;;;;;5096577;28;20035;-66
2022/01/22 10:07:18;;;;;;;1.85;0.90;;;10.90;67.50;;;;;;5068089;28;20684;-65
2022/01/22 10:10:04;;;;;;;1.52;1.00;;;11.10;67.40;;;;;;5079941;28;20055;-65
2022/01/22 10:12:50;;;;;;;7.78;4.40;;;11.30;68.50;;;;;;5001848;28;20062;-65
2022/01/22 10:15:35;;;;;;;6.18;3.58;;;11.30;68.60;;;;;;5096355;28;20050;-66
2022/01/22 10:18:21;;;;;;;5.40;2.00;;;11.30;67.70;;;;;;5096603;28;20044;-65
2022/01/22 10:20:49;;;;;;;2.08;1.30;;;11.30;67.80;;;;;;5114410;28;20075;-65
2022/01/22 10:23:24;;;;;;;2.38;1.30;;;11.20;68.00;;;;;;5114357;28;20047;-65
2022/01/22 10:26:02;;;;;;;2.42;1.50;;;10.80;68.40;;;;;;5114846;28;20393;-66
2022/01/22 10:28:44;;;;;;;4.65;1.35;;;10.60;68.70;;;;;;5114459;28;20466;-66
2022/01/22 10:31:24;;;;;;;2.70;1.63;;;10.70;68.70;;;;;;5096385;28;20040;-66
2022/01/22 10:34:30;;;;;;;2.92;1.42;;;10.80;68.90;;;;;;5051603;28;20088;-67
2022/01/22 10:37:27;;;;;;;3.65;1.25;;;10.90;70.30;;;;;;5110160;28;20056;-67
2022/01/22 10:40:16;;;;;;;3.85;1.30;;;11.00;70.20;;;;;;5095437;28;20142;-67
2022/01/22 10:42:44;;;;;;;3.22;1.30;;;11.20;69.90;;;;;;5071916;28;20082;-67
2022/01/22 10:45:19;;;;;;;3.22;1.27;;;11.40;69.80;;;;;;5076077;28;20497;-67
2022/01/22 10:47:48;;;;;;;3.33;1.30;;;11.30;68.80;;;;;;5075888;28;20048;-67
2022/01/22 10:50:23;;;;;;;3.72;2.13;;;11.20;69.30;;;;;;5093790;28;20036;-68
2022/01/22 10:52:53;;;;;;;3.28;2.13;;;11.00;69.90;;;;;;5092330;28;20134;-68
2022/01/22 10:55:21;;;;;;;3.30;1.52;;;10.90;69.70;;;;;;5093610;28;20044;-68
2022/01/22 10:58:08;;;;;;;3.15;1.48;;;10.90;69.20;;;;;;5093438;28;20036;-68
2022/01/22 11:00:36;;;;;;;2.03;1.48;;;10.90;70.00;;;;;;5093630;28;20093;-67
2022/01/22 11:03:26;;;;;;;1.95;1.33;;;10.90;71.00;;;;;;5093408;28;20054;-68
2022/01/22 11:05:54;;;;;;;2.63;1.50;;;10.90;70.80;;;;;;5093566;28;20498;-67
2022/01/22 11:08:22;;;;;;;3.78;1.60;;;10.80;70.10;;;;;;5075025;28;20052;-67
2022/01/22 11:10:50;;;;;;;2.72;1.42;;;10.80;70.50;;;;;;5093141;28;20086;-67
2022/01/22 11:13:19;;;;;;;4.75;1.65;;;10.90;70.90;;;;;;5075247;28;20151;-67
2022/01/22 11:15:50;;;;;;;6.70;2.30;;;10.90;70.70;;;;;;5075786;28;20433;-67
2022/01/22 11:18:20;;;;;;;4.47;2.55;;;11.20;70.70;;;;;;5059081;28;20075;-67
2022/01/22 11:20:52;;;;;;;4.70;2.40;;;11.20;69.70;;;;;;5093043;28;20044;-67
2022/01/22 11:23:21;;;;;;;3.05;1.77;;;11.20;71.50;;;;;;5093304;28;20044;-67
2022/01/22 11:25:50;;;;;;;4.00;1.75;;;11.30;72.00;;;;;;5093046;28;20036;-67
2022/01/22 11:28:20;;;;;;;5.20;2.10;;;11.00;71.20;;;;;;5093225;28;20044;-67
2022/01/22 11:30:49;;;;;;;4.47;2.35;;;11.00;71.50;;;;;;5074805;28;20040;-67
2022/01/22 11:33:21;;;;;;;13.90;6.57;;;10.90;71.90;;;;;;5074958;28;20453;-67
2022/01/22 11:35:51;;;;;;;5.35;3.25;;;10.70;72.40;;;;;;5093126;28;20040;-67
2022/01/22 11:38:27;;;;;;;3.47;1.70;;;10.70;72.50;;;;;;5075278;28;20044;-66
2022/01/22 11:41:15;;;;;;;4.60;1.53;;;10.80;71.70;;;;;;5075097;28;20449;-67
2022/01/22 11:46:59;;;;;;;5.38;2.28;;;10.90;71.80;;;;;;5093067;28;20040;-67
2022/01/22 11:49:30;;;;;;;3.75;1.58;;;10.90;71.30;;;;;;5092823;28;20051;-67
2022/01/22 11:52:10;;;;;;;3.08;1.92;;;10.90;72.10;;;;;;5074908;28;20593;-67
2022/01/22 11:54:56;;;;;;;5.63;2.20;;;10.90;71.70;;;;;;5093113;28;20479;-68
2022/01/22 11:57:27;;;;;;;4.70;2.40;;;11.10;71.00;;;;;;5074489;28;20395;-67
2022/01/22 12:00:21;;;;;;;3.88;1.48;;;11.30;71.70;;;;;;5092894;28;20556;-67
2022/01/22 12:03:07;;;;;;;2.70;1.52;;;11.60;70.30;;;;;;5074602;28;20482;-67
2022/01/22 12:05:54;;;;;;;3.25;2.15;;;11.60;69.30;;;;;;5092599;28;20044;-67
2022/01/22 12:08:23;;;;;;;2.75;1.45;;;11.60;68.40;;;;;;5092870;28;20127;-67
2022/01/22 12:14:28;;;;;;;2.65;1.40;;;11.50;68.30;;;;;;5074553;28;20067;-67
2022/01/22 12:16:40;;;;;;;4.40;2.20;;;11.40;67.20;;;;;;5074150;28;20101;-68
2022/01/22 12:19:51;;;;;;;2.80;1.52;;;11.30;68.20;;;;;;5092406;28;20394;-68
2022/01/22 12:22:45;;;;;;;2.53;1.80;;;11.30;68.40;;;;;;5061479;28;20398;-67
2022/01/22 12:25:15;;;;;;;1.90;1.45;;;11.50;69.00;;;;;;5094115;28;20064;-68
2022/01/22 12:27:51;;;;;;;3.63;1.60;;;11.60;69.80;;;;;;5096328;28;20071;-67
2022/01/22 12:30:49;;;;;;;4.15;1.90;;;11.50;70.20;;;;;;5095290;28;20048;-67
2022/01/22 12:33:28;;;;;;;2.45;1.65;;;11.30;69.70;;;;;;5096366;28;20126;-66
2022/01/22 12:36:00;;;;;;;2.03;1.38;;;11.20;69.30;;;;;;5095109;28;20036;-66
2022/01/22 12:44:06;;;;;;;;;;;11.00;71.00;;;;;;5096628;28;20036;-68
2022/01/22 12:46:47;;;;;;;6.30;2.80;;;11.00;70.60;;;;;;5095756;28;19923;-65
2022/01/22 12:49:16;;;;;;;2.50;1.65;;;10.90;70.70;;;;;;5095855;28;20052;-68
2022/01/22 12:51:44;;;;;;;3.88;1.60;;;10.80;69.80;;;;;;5077861;28;20040;-67
2022/01/22 12:54:11;;;;;;;3.30;1.40;;;10.60;70.20;;;;;;5077799;28;20043;-67
2022/01/22 12:56:51;;;;;;;3.60;2.00;;;10.40;71.10;;;;;;5095627;28;20040;-65
2022/01/22 12:59:18;;;;;;;3.47;1.85;;;10.50;71.50;;;;;;5095600;28;20047;-68
2022/01/22 13:01:51;;;;;;;3.30;1.60;;;10.50;71.10;;;;;;5095820;28;20044;-67
2022/01/22 13:04:21;;;;;;;3.00;1.63;;;10.40;71.00;;;;;;5077605;28;20120;-66
2022/01/22 13:07:12;;;;;;;1.33;0.90;;;10.40;71.40;;;;;;5077382;28;20090;-67
2022/01/22 13:10:10;;;;;;;2.60;1.50;;;10.40;71.70;;;;;;5082266;28;20056;-68
2022/01/22 13:12:43;;;;;;;2.72;1.77;;;10.40;71.90;;;;;;5077304;28;20048;-68
2022/01/22 13:15:14;;;;;;;5.75;2.65;;;10.50;71.60;;;;;;5095264;28;20130;-68
2022/01/22 13:17:50;;;;;;;6.40;2.30;;;10.60;71.60;;;;;;5077733;28;20059;-67
2022/01/22 13:20:20;;;;;;;2.63;1.60;;;10.70;71.30;;;;;;5077355;28;20055;-67
2022/01/22 13:22:48;;;;;;;3.53;1.98;;;10.70;70.80;;;;;;5094274;28;20121;-68
2022/01/22 13:25:17;;;;;;;3.22;1.83;;;10.60;70.00;;;;;;4646028;28;20703;-64
2022/01/22 13:27:58;;;;;;;5.32;1.50;;;10.60;68.70;;;;;;4987188;28;20540;-68
2022/01/22 13:30:36;;;;;;;3.55;2.10;;;10.50;68.70;;;;;;5115875;28;20071;-68
2022/01/22 13:33:29;;;;;;;4.72;1.92;;;10.50;68.70;;;;;;5114214;28;20478;-67
2022/01/22 13:36:15;;;;;;;4.57;1.42;;;10.50;68.20;;;;;;5115450;28;20040;-67
2022/01/22 13:49:41;;;;;;;4.78;1.67;;;10.30;70.30;;;;;;4653127;28;20634;-64
2022/01/22 13:52:11;;;;;;;4.97;2.10;;;10.30;71.00;;;;;;4767167;27;20051;-67
2022/01/22 13:54:45;;;;;;;3.00;1.33;;;10.20;71.60;;;;;;5117652;27;20046;-67
2022/01/22 13:57:25;;;;;;;2.10;1.20;;;10.10;72.10;;;;;;5117320;27;20500;-67
2022/01/22 13:59:56;;;;;;;1.33;1.00;;;10.20;71.90;;;;;;5117370;27;20130;-66
2022/01/22 14:02:52;;;;;;;2.72;1.70;;;10.20;70.20;;;;;;5117389;27;20047;-68
2022/01/22 14:05:26;;;;;;;1.25;0.93;;;10.10;70.40;;;;;;5117088;27;20147;-68
2022/01/22 14:08:00;;;;;;;1.95;1.17;;;10.10;71.20;;;;;;5135618;27;20039;-68
2022/01/22 14:10:28;;;;;;;3.38;1.30;;;10.10;70.80;;;;;;5135718;27;20043;-68
2022/01/22 14:13:07;;;;;;;5.75;2.47;;;10.00;69.70;;;;;;5109704;28;20054;-68
2022/01/22 14:15:43;;;;;;;3.65;2.25;;;10.00;69.20;;;;;;5104528;28;20546;-67
2022/01/22 14:18:14;;;;;;;3.10;1.42;;;10.00;69.30;;;;;;5123131;27;20039;-67
2022/01/22 14:21:07;;;;;;;2.30;0.70;;;10.10;69.70;;;;;;5132983;27;20085;-67
2022/01/22 14:23:37;;;;;;;2.78;0.93;;;10.10;68.70;;;;;;5121560;27;20134;-68
2022/01/22 14:26:09;;;;;;;2.47;0.90;;;10.10;68.40;;;;;;5132559;27;20071;-68
2022/01/22 14:28:41;;;;;;;2.85;1.20;;;10.10;68.60;;;;;;5134355;27;20430;-68
2022/01/22 14:31:19;;;;;;;2.08;1.10;;;10.20;68.90;;;;;;5098831;28;20040;-67
2022/01/22 14:33:47;;;;;;;5.40;1.52;;;10.20;69.40;;;;;;5109258;27;20044;-66
2022/01/22 14:36:18;;;;;;;2.88;1.30;;;10.30;69.80;;;;;;5117957;27;20067;-67
2022/01/22 14:38:56;;;;;;;3.40;1.73;;;10.30;70.20;;;;;;5132340;27;20039;-64
2022/01/22 14:46:58;;;;;;;4.10;2.30;;;10.20;69.90;;;;;;5108207;27;20147;-65
2022/01/22 14:49:38;;;;;;;2.83;1.40;;;10.10;69.60;;;;;;5133830;27;20042;-66
2022/01/22 14:52:08;;;;;;;6.43;3.25;;;10.00;69.60;;;;;;5119603;27;20070;-67
2022/01/22 14:54:39;;;;;;;6.22;3.38;;;9.90;70.20;;;;;;5125872;27;20052;-66
2022/01/22 14:57:09;;;;;;;5.35;2.75;;;9.80;70.40;;;;;;5116010;27;20031;-66
2022/01/22 14:59:38;;;;;;;3.25;2.05;;;9.80;70.60;;;;;;5133659;27;20035;-66
2022/01/22 15:02:07;;;;;;;4.85;1.67;;;9.70;70.70;;;;;;5102238;27;20047;-66
2022/01/22 15:04:36;;;;;;;4.32;2.38;;;9.80;71.10;;;;;;5132799;27;20038;-66
2022/01/22 15:07:09;;;;;;;3.63;2.13;;;9.80;71.20;;;;;;5095741;27;20049;-67
2022/01/22 15:09:38;;;;;;;3.95;2.00;;;9.80;71.30;;;;;;5133268;27;20401;-65
2022/01/22 15:12:08;;;;;;;4.13;2.60;;;9.70;71.20;;;;;;5120324;27;20040;-67
2022/01/22 15:14:37;;;;;;;6.32;3.90;;;9.80;71.80;;;;;;5133221;27;20035;-66
2022/01/22 15:19:42;;;;;;;5.65;3.63;;;9.80;72.00;;;;;;5133106;27;20545;-66
2022/01/22 15:22:12;;;;;;;10.43;4.20;;;9.80;72.20;;;;;;5126691;27;20035;-67
2022/01/22 15:24:41;;;;;;;7.90;5.03;;;9.70;72.50;;;;;;5133001;27;20039;-66
2022/01/22 15:27:12;;;;;;;8.23;6.50;;;9.70;72.60;;;;;;5121954;27;20509;-66